sensor_id;sensor_type;location;lat;lon;timestamp;P1;durP1;ratioP1;P2;durP2;ratioP2
22650;SDS011;11492;42.646;23.400;2023-09-30T00:01:16;18.75;;;5.05;;
22650;SDS011;11492;42.646;23.400;2023-09-30T00:03:46;19.92;;;4.97;;
22650;SDS011;11492;42.646;23.400;2023-09-30T00:06:16;17.17;;;5.35;;
22650;SDS011;11492;42.646;23.400;2023-09-30T00:08:45;12.70;;;4.70;;
22650;SDS011;11492;42.646;23.400;2023-09-30T00:11:18;16.92;;;4.82;;
22650;SDS011;11492;42.646;23.400;2023-09-30T00:13:49;14.27;;;4.90;;
22650;SDS011;11492;42.646;23.400;2023-09-30T00:16:19;10.07;;;5.22;;
22650;SDS011;11492;42.646;23.400;2023-09-30T00:18:47;16.85;;;5.00;;
22650;SDS011;11492;42.646;23.400;2023-09-30T00:21:20;19.30;;;4.93;;
22650;SDS011;11492;42.646;23.400;2023-09-30T00:23:48;13.52;;;4.97;;
22650;SDS011;11492;42.646;23.400;2023-09-30T00:26:21;20.50;;;5.20;;
22650;SDS011;11492;42.646;23.400;2023-09-30T00:28:51;12.68;;;4.82;;
22650;SDS011;11492;42.646;23.400;2023-09-30T00:31:21;13.32;;;5.03;;
22650;SDS011;11492;42.646;23.400;2023-09-30T00:33:52;16.95;;;5.20;;
22650;SDS011;11492;42.646;23.400;2023-09-30T00:36:21;19.42;;;4.88;;
22650;SDS011;11492;42.646;23.400;2023-09-30T00:38:49;16.17;;;5.07;;
22650;SDS011;11492;42.646;23.400;2023-09-30T00:41:17;19.25;;;5.40;;
22650;SDS011;11492;42.646;23.400;2023-09-30T00:43:45;19.20;;;5.55;;
22650;SDS011;11492;42.646;23.400;2023-09-30T00:49:03;14.00;;;5.82;;
22650;SDS011;11492;42.646;23.400;2023-09-30T00:51:34;17.27;;;5.30;;
22650;SDS011;11492;42.646;23.400;2023-09-30T00:54:00;14.50;;;4.85;;
22650;SDS011;11492;42.646;23.400;2023-09-30T00:56:27;16.30;;;5.60;;
22650;SDS011;11492;42.646;23.400;2023-09-30T00:58:58;10.63;;;5.03;;
22650;SDS011;11492;42.646;23.400;2023-09-30T01:01:27;14.63;;;5.32;;
22650;SDS011;11492;42.646;23.400;2023-09-30T01:03:58;21.00;;;5.22;;
22650;SDS011;11492;42.646;23.400;2023-09-30T01:06:25;21.00;;;5.35;;
22650;SDS011;11492;42.646;23.400;2023-09-30T01:08:52;12.68;;;5.28;;
22650;SDS011;11492;42.646;23.400;2023-09-30T01:11:21;18.23;;;6.07;;
22650;SDS011;11492;42.646;23.400;2023-09-30T01:13:53;14.90;;;5.07;;
22650;SDS011;11492;42.646;23.400;2023-09-30T01:16:18;22.38;;;5.28;;
22650;SDS011;11492;42.646;23.400;2023-09-30T01:18:49;13.68;;;5.30;;
22650;SDS011;11492;42.646;23.400;2023-09-30T01:21:16;18.15;;;5.15;;
22650;SDS011;11492;42.646;23.400;2023-09-30T01:23:43;16.13;;;5.38;;
22650;SDS011;11492;42.646;23.400;2023-09-30T01:26:12;19.23;;;4.90;;
22650;SDS011;11492;42.646;23.400;2023-09-30T01:28:43;17.85;;;5.20;;
22650;SDS011;11492;42.646;23.400;2023-09-30T01:31:16;19.60;;;5.25;;
22650;SDS011;11492;42.646;23.400;2023-09-30T01:33:45;16.92;;;5.35;;
22650;SDS011;11492;42.646;23.400;2023-09-30T01:36:10;17.23;;;5.38;;
22650;SDS011;11492;42.646;23.400;2023-09-30T01:38:38;30.75;;;5.32;;
22650;SDS011;11492;42.646;23.400;2023-09-30T01:41:10;19.90;;;5.80;;
22650;SDS011;11492;42.646;23.400;2023-09-30T01:43:39;19.58;;;5.68;;
22650;SDS011;11492;42.646;23.400;2023-09-30T01:46:07;15.90;;;5.20;;
22650;SDS011;11492;42.646;23.400;2023-09-30T01:48:34;12.93;;;5.47;;
22650;SDS011;11492;42.646;23.400;2023-09-30T01:51:03;12.02;;;5.53;;
22650;SDS011;11492;42.646;23.400;2023-09-30T01:53:29;19.30;;;5.38;;
22650;SDS011;11492;42.646;23.400;2023-09-30T01:56:00;20.63;;;5.35;;
22650;SDS011;11492;42.646;23.400;2023-09-30T01:58:30;26.05;;;6.00;;
22650;SDS011;11492;42.646;23.400;2023-09-30T02:01:06;12.97;;;5.80;;
22650;SDS011;11492;42.646;23.400;2023-09-30T02:03:32;11.38;;;5.13;;
22650;SDS011;11492;42.646;23.400;2023-09-30T02:06:02;17.52;;;5.53;;
22650;SDS011;11492;42.646;23.400;2023-09-30T02:08:34;19.60;;;5.43;;
22650;SDS011;11492;42.646;23.400;2023-09-30T02:11:03;15.88;;;5.93;;
22650;SDS011;11492;42.646;23.400;2023-09-30T02:13:35;16.48;;;5.72;;
22650;SDS011;11492;42.646;23.400;2023-09-30T02:16:10;13.38;;;5.35;;
22650;SDS011;11492;42.646;23.400;2023-09-30T02:18:39;21.63;;;6.60;;
22650;SDS011;11492;42.646;23.400;2023-09-30T02:21:07;16.08;;;5.40;;
22650;SDS011;11492;42.646;23.400;2023-09-30T02:23:35;23.40;;;6.80;;
22650;SDS011;11492;42.646;23.400;2023-09-30T02:26:06;13.77;;;5.72;;
22650;SDS011;11492;42.646;23.400;2023-09-30T02:28:34;15.32;;;5.13;;
22650;SDS011;11492;42.646;23.400;2023-09-30T02:31:05;21.95;;;5.82;;
22650;SDS011;11492;42.646;23.400;2023-09-30T02:33:36;21.20;;;5.35;;
22650;SDS011;11492;42.646;23.400;2023-09-30T02:36:06;16.55;;;5.45;;
22650;SDS011;11492;42.646;23.400;2023-09-30T02:38:35;18.92;;;5.78;;
22650;SDS011;11492;42.646;23.400;2023-09-30T02:41:04;20.88;;;5.72;;
22650;SDS011;11492;42.646;23.400;2023-09-30T02:43:33;18.48;;;5.43;;
22650;SDS011;11492;42.646;23.400;2023-09-30T02:46:01;13.20;;;5.22;;
22650;SDS011;11492;42.646;23.400;2023-09-30T02:48:31;15.30;;;5.60;;
22650;SDS011;11492;42.646;23.400;2023-09-30T02:51:02;16.48;;;5.80;;
22650;SDS011;11492;42.646;23.400;2023-09-30T02:53:30;26.23;;;6.10;;
22650;SDS011;11492;42.646;23.400;2023-09-30T02:56:01;18.00;;;5.60;;
22650;SDS011;11492;42.646;23.400;2023-09-30T02:58:35;13.32;;;5.70;;
22650;SDS011;11492;42.646;23.400;2023-09-30T03:01:05;17.17;;;5.53;;
22650;SDS011;11492;42.646;23.400;2023-09-30T03:03:37;24.40;;;6.40;;
22650;SDS011;11492;42.646;23.400;2023-09-30T03:06:04;16.48;;;6.10;;
22650;SDS011;11492;42.646;23.400;2023-09-30T03:08:33;16.80;;;5.88;;
22650;SDS011;11492;42.646;23.400;2023-09-30T03:11:01;17.35;;;6.38;;
22650;SDS011;11492;42.646;23.400;2023-09-30T03:13:27;20.73;;;6.45;;
22650;SDS011;11492;42.646;23.400;2023-09-30T03:15:56;21.35;;;6.63;;
22650;SDS011;11492;42.646;23.400;2023-09-30T03:18:25;23.15;;;6.55;;
22650;SDS011;11492;42.646;23.400;2023-09-30T03:20:59;19.38;;;6.60;;
22650;SDS011;11492;42.646;23.400;2023-09-30T03:23:33;25.23;;;6.78;;
22650;SDS011;11492;42.646;23.400;2023-09-30T03:26:02;20.65;;;6.93;;
22650;SDS011;11492;42.646;23.400;2023-09-30T03:28:28;22.55;;;6.90;;
22650;SDS011;11492;42.646;23.400;2023-09-30T03:30:59;25.55;;;6.82;;
22650;SDS011;11492;42.646;23.400;2023-09-30T03:33:31;22.15;;;6.82;;
22650;SDS011;11492;42.646;23.400;2023-09-30T03:35:57;20.77;;;6.35;;
22650;SDS011;11492;42.646;23.400;2023-09-30T03:38:28;23.23;;;6.88;;
22650;SDS011;11492;42.646;23.400;2023-09-30T03:40:57;21.58;;;7.28;;
22650;SDS011;11492;42.646;23.400;2023-09-30T03:43:29;20.80;;;6.97;;
22650;SDS011;11492;42.646;23.400;2023-09-30T03:46:02;19.35;;;7.00;;
22650;SDS011;11492;42.646;23.400;2023-09-30T03:48:32;14.63;;;6.45;;
22650;SDS011;11492;42.646;23.400;2023-09-30T03:51:14;15.25;;;6.85;;
22650;SDS011;11492;42.646;23.400;2023-09-30T03:53:44;19.20;;;6.65;;
22650;SDS011;11492;42.646;23.400;2023-09-30T03:56:15;15.68;;;6.57;;
22650;SDS011;11492;42.646;23.400;2023-09-30T03:58:41;25.20;;;6.20;;
22650;SDS011;11492;42.646;23.400;2023-09-30T04:01:10;17.25;;;7.18;;
22650;SDS011;11492;42.646;23.400;2023-09-30T04:03:40;33.35;;;7.53;;
22650;SDS011;11492;42.646;23.400;2023-09-30T04:06:08;23.42;;;6.53;;
22650;SDS011;11492;42.646;23.400;2023-09-30T04:08:34;30.17;;;9.13;;
22650;SDS011;11492;42.646;23.400;2023-09-30T04:11:03;24.60;;;8.27;;
22650;SDS011;11492;42.646;23.400;2023-09-30T04:13:30;25.60;;;9.32;;
22650;SDS011;11492;42.646;23.400;2023-09-30T04:16:02;25.73;;;9.37;;
22650;SDS011;11492;42.646;23.400;2023-09-30T04:18:28;21.65;;;9.55;;
22650;SDS011;11492;42.646;23.400;2023-09-30T04:20:54;31.75;;;10.18;;
22650;SDS011;11492;42.646;23.400;2023-09-30T04:23:23;19.30;;;10.07;;
22650;SDS011;11492;42.646;23.400;2023-09-30T04:25:51;20.85;;;9.77;;
22650;SDS011;11492;42.646;23.400;2023-09-30T04:28:17;24.30;;;10.02;;
22650;SDS011;11492;42.646;23.400;2023-09-30T04:30:51;31.33;;;9.10;;
22650;SDS011;11492;42.646;23.400;2023-09-30T04:33:19;20.30;;;9.40;;
22650;SDS011;11492;42.646;23.400;2023-09-30T04:35:50;34.83;;;9.00;;
22650;SDS011;11492;42.646;23.400;2023-09-30T04:38:21;27.10;;;8.93;;
22650;SDS011;11492;42.646;23.400;2023-09-30T04:40:47;21.75;;;9.35;;
22650;SDS011;11492;42.646;23.400;2023-09-30T04:43:19;28.55;;;9.13;;
22650;SDS011;11492;42.646;23.400;2023-09-30T04:45:47;30.35;;;9.98;;
22650;SDS011;11492;42.646;23.400;2023-09-30T04:48:17;20.52;;;8.60;;
22650;SDS011;11492;42.646;23.400;2023-09-30T04:50:49;23.40;;;9.13;;
22650;SDS011;11492;42.646;23.400;2023-09-30T04:53:20;27.70;;;9.00;;
22650;SDS011;11492;42.646;23.400;2023-09-30T04:55:50;22.25;;;8.93;;
22650;SDS011;11492;42.646;23.400;2023-09-30T04:58:16;27.38;;;9.30;;
22650;SDS011;11492;42.646;23.400;2023-09-30T05:00:48;35.47;;;9.60;;
22650;SDS011;11492;42.646;23.400;2023-09-30T05:03:21;38.42;;;11.60;;
22650;SDS011;11492;42.646;23.400;2023-09-30T05:05:49;37.70;;;9.68;;
22650;SDS011;11492;42.646;23.400;2023-09-30T05:08:25;43.28;;;9.77;;
22650;SDS011;11492;42.646;23.400;2023-09-30T05:10:58;28.83;;;9.30;;
22650;SDS011;11492;42.646;23.400;2023-09-30T05:13:26;26.75;;;8.98;;
22650;SDS011;11492;42.646;23.400;2023-09-30T05:15:54;36.20;;;9.55;;
22650;SDS011;11492;42.646;23.400;2023-09-30T05:18:24;34.85;;;9.35;;
22650;SDS011;11492;42.646;23.400;2023-09-30T05:20:58;23.70;;;8.23;;
22650;SDS011;11492;42.646;23.400;2023-09-30T05:23:29;20.92;;;8.68;;
22650;SDS011;11492;42.646;23.400;2023-09-30T05:26:00;30.17;;;8.88;;
22650;SDS011;11492;42.646;23.400;2023-09-30T05:28:30;32.67;;;7.78;;
22650;SDS011;11492;42.646;23.400;2023-09-30T05:30:58;20.00;;;7.60;;
22650;SDS011;11492;42.646;23.400;2023-09-30T05:33:26;21.58;;;7.13;;
22650;SDS011;11492;42.646;23.400;2023-09-30T05:35:54;23.98;;;7.75;;
22650;SDS011;11492;42.646;23.400;2023-09-30T05:38:24;20.90;;;7.47;;
22650;SDS011;11492;42.646;23.400;2023-09-30T05:40:54;22.08;;;6.97;;
22650;SDS011;11492;42.646;23.400;2023-09-30T05:43:26;26.40;;;7.03;;
22650;SDS011;11492;42.646;23.400;2023-09-30T05:45:59;31.52;;;7.25;;
22650;SDS011;11492;42.646;23.400;2023-09-30T05:48:32;29.33;;;7.25;;
22650;SDS011;11492;42.646;23.400;2023-09-30T05:51:01;25.50;;;6.47;;
22650;SDS011;11492;42.646;23.400;2023-09-30T05:53:28;21.15;;;6.50;;
22650;SDS011;11492;42.646;23.400;2023-09-30T05:55:58;16.55;;;6.45;;
22650;SDS011;11492;42.646;23.400;2023-09-30T05:58:26;13.88;;;6.03;;
22650;SDS011;11492;42.646;23.400;2023-09-30T06:00:52;22.50;;;5.80;;
22650;SDS011;11492;42.646;23.400;2023-09-30T06:03:22;22.95;;;6.90;;
22650;SDS011;11492;42.646;23.400;2023-09-30T06:05:49;18.58;;;6.68;;
22650;SDS011;11492;42.646;23.400;2023-09-30T06:08:15;27.40;;;7.32;;
22650;SDS011;11492;42.646;23.400;2023-09-30T06:10:44;22.65;;;6.45;;
22650;SDS011;11492;42.646;23.400;2023-09-30T06:13:13;20.88;;;7.60;;
22650;SDS011;11492;42.646;23.400;2023-09-30T06:15:47;23.10;;;7.18;;
22650;SDS011;11492;42.646;23.400;2023-09-30T06:18:15;31.77;;;7.75;;
22650;SDS011;11492;42.646;23.400;2023-09-30T06:20:42;21.75;;;7.65;;
22650;SDS011;11492;42.646;23.400;2023-09-30T06:23:07;19.13;;;7.57;;
22650;SDS011;11492;42.646;23.400;2023-09-30T06:25:36;24.45;;;7.80;;
22650;SDS011;11492;42.646;23.400;2023-09-30T06:28:04;28.02;;;8.15;;
22650;SDS011;11492;42.646;23.400;2023-09-30T06:30:33;23.27;;;7.78;;
22650;SDS011;11492;42.646;23.400;2023-09-30T06:33:01;21.20;;;7.25;;
22650;SDS011;11492;42.646;23.400;2023-09-30T06:35:31;24.33;;;8.13;;
22650;SDS011;11492;42.646;23.400;2023-09-30T06:38:03;20.02;;;8.02;;
22650;SDS011;11492;42.646;23.400;2023-09-30T06:40:30;25.88;;;8.40;;
22650;SDS011;11492;42.646;23.400;2023-09-30T06:42:58;23.98;;;8.10;;
22650;SDS011;11492;42.646;23.400;2023-09-30T06:45:27;21.83;;;7.68;;
22650;SDS011;11492;42.646;23.400;2023-09-30T06:47:53;30.52;;;8.10;;
22650;SDS011;11492;42.646;23.400;2023-09-30T06:50:20;30.73;;;7.75;;
22650;SDS011;11492;42.646;23.400;2023-09-30T06:52:46;26.25;;;8.40;;
22650;SDS011;11492;42.646;23.400;2023-09-30T06:55:17;20.63;;;7.55;;
22650;SDS011;11492;42.646;23.400;2023-09-30T06:57:43;25.08;;;8.18;;
22650;SDS011;11492;42.646;23.400;2023-09-30T07:00:09;36.90;;;8.35;;
22650;SDS011;11492;42.646;23.400;2023-09-30T07:02:37;25.77;;;7.60;;
22650;SDS011;11492;42.646;23.400;2023-09-30T07:05:09;21.52;;;7.50;;
22650;SDS011;11492;42.646;23.400;2023-09-30T07:07:38;20.90;;;6.70;;
22650;SDS011;11492;42.646;23.400;2023-09-30T07:10:06;18.45;;;6.75;;
22650;SDS011;11492;42.646;23.400;2023-09-30T07:12:34;27.45;;;7.13;;
22650;SDS011;11492;42.646;23.400;2023-09-30T07:15:01;56.10;;;8.98;;
22650;SDS011;11492;42.646;23.400;2023-09-30T07:17:29;38.53;;;6.85;;
22650;SDS011;11492;42.646;23.400;2023-09-30T07:19:55;27.73;;;7.82;;
22650;SDS011;11492;42.646;23.400;2023-09-30T07:22:24;31.30;;;6.82;;
22650;SDS011;11492;42.646;23.400;2023-09-30T07:24:53;35.78;;;7.15;;
22650;SDS011;11492;42.646;23.400;2023-09-30T07:27:18;23.05;;;6.63;;
22650;SDS011;11492;42.646;23.400;2023-09-30T07:29:44;16.95;;;6.45;;
22650;SDS011;11492;42.646;23.400;2023-09-30T07:32:10;25.98;;;7.57;;
22650;SDS011;11492;42.646;23.400;2023-09-30T07:34:39;24.77;;;6.57;;
22650;SDS011;11492;42.646;23.400;2023-09-30T07:37:05;26.77;;;6.28;;
22650;SDS011;11492;42.646;23.400;2023-09-30T07:39:31;30.33;;;6.45;;
22650;SDS011;11492;42.646;23.400;2023-09-30T07:41:56;35.25;;;7.00;;
22650;SDS011;11492;42.646;23.400;2023-09-30T07:44:22;19.10;;;5.97;;
22650;SDS011;11492;42.646;23.400;2023-09-30T07:46:48;20.38;;;5.90;;
22650;SDS011;11492;42.646;23.400;2023-09-30T07:49:13;20.17;;;5.63;;
22650;SDS011;11492;42.646;23.400;2023-09-30T07:51:41;26.27;;;5.80;;
22650;SDS011;11492;42.646;23.400;2023-09-30T07:54:07;26.15;;;6.47;;
22650;SDS011;11492;42.646;23.400;2023-09-30T07:56:36;23.55;;;6.00;;
22650;SDS011;11492;42.646;23.400;2023-09-30T07:59:02;21.33;;;6.10;;
22650;SDS011;11492;42.646;23.400;2023-09-30T08:01:28;28.90;;;6.15;;
22650;SDS011;11492;42.646;23.400;2023-09-30T08:03:56;30.23;;;6.53;;
22650;SDS011;11492;42.646;23.400;2023-09-30T08:06:22;27.75;;;5.65;;
22650;SDS011;11492;42.646;23.400;2023-09-30T08:08:50;18.80;;;5.35;;
22650;SDS011;11492;42.646;23.400;2023-09-30T08:11:17;24.33;;;5.97;;
22650;SDS011;11492;42.646;23.400;2023-09-30T08:13:43;27.95;;;5.75;;
22650;SDS011;11492;42.646;23.400;2023-09-30T08:16:09;15.60;;;4.50;;
22650;SDS011;11492;42.646;23.400;2023-09-30T08:18:35;22.92;;;5.00;;
22650;SDS011;11492;42.646;23.400;2023-09-30T08:21:02;14.80;;;4.40;;
22650;SDS011;11492;42.646;23.400;2023-09-30T08:23:28;18.77;;;5.18;;
22650;SDS011;11492;42.646;23.400;2023-09-30T08:25:57;20.95;;;5.32;;
22650;SDS011;11492;42.646;23.400;2023-09-30T08:28:24;16.10;;;5.13;;
22650;SDS011;11492;42.646;23.400;2023-09-30T08:30:52;15.40;;;5.00;;
22650;SDS011;11492;42.646;23.400;2023-09-30T08:33:24;20.73;;;6.00;;
22650;SDS011;11492;42.646;23.400;2023-09-30T08:35:51;21.00;;;5.75;;
22650;SDS011;11492;42.646;23.400;2023-09-30T08:38:17;20.40;;;4.95;;
22650;SDS011;11492;42.646;23.400;2023-09-30T08:40:44;17.40;;;5.47;;
22650;SDS011;11492;42.646;23.400;2023-09-30T08:43:11;17.98;;;5.30;;
22650;SDS011;11492;42.646;23.400;2023-09-30T08:45:39;20.38;;;4.90;;
22650;SDS011;11492;42.646;23.400;2023-09-30T08:48:09;17.65;;;4.80;;
22650;SDS011;11492;42.646;23.400;2023-09-30T08:50:37;18.67;;;5.60;;
22650;SDS011;11492;42.646;23.400;2023-09-30T08:53:06;20.80;;;6.15;;
22650;SDS011;11492;42.646;23.400;2023-09-30T08:55:37;33.60;;;6.10;;
22650;SDS011;11492;42.646;23.400;2023-09-30T08:58:06;19.35;;;6.10;;
22650;SDS011;11492;42.646;23.400;2023-09-30T09:00:33;21.35;;;6.55;;
22650;SDS011;11492;42.646;23.400;2023-09-30T09:03:00;15.70;;;6.15;;
22650;SDS011;11492;42.646;23.400;2023-09-30T09:05:27;30.40;;;6.50;;
22650;SDS011;11492;42.646;23.400;2023-09-30T09:07:55;30.58;;;6.68;;
22650;SDS011;11492;42.646;23.400;2023-09-30T09:10:21;23.90;;;5.72;;
22650;SDS011;11492;42.646;23.400;2023-09-30T09:12:54;24.92;;;6.10;;
22650;SDS011;11492;42.646;23.400;2023-09-30T09:15:26;18.20;;;6.03;;
22650;SDS011;11492;42.646;23.400;2023-09-30T09:17:56;21.05;;;6.18;;
22650;SDS011;11492;42.646;23.400;2023-09-30T09:20:22;29.95;;;6.50;;
22650;SDS011;11492;42.646;23.400;2023-09-30T09:22:55;16.08;;;6.55;;
22650;SDS011;11492;42.646;23.400;2023-09-30T09:25:25;17.60;;;6.68;;
22650;SDS011;11492;42.646;23.400;2023-09-30T09:27:52;11.43;;;5.60;;
22650;SDS011;11492;42.646;23.400;2023-09-30T09:30:19;18.30;;;6.03;;
22650;SDS011;11492;42.646;23.400;2023-09-30T09:33:05;18.77;;;6.05;;
22650;SDS011;11492;42.646;23.400;2023-09-30T09:35:33;27.83;;;6.13;;
22650;SDS011;11492;42.646;23.400;2023-09-30T09:38:07;16.10;;;6.07;;
22650;SDS011;11492;42.646;23.400;2023-09-30T09:40:35;22.90;;;5.40;;
22650;SDS011;11492;42.646;23.400;2023-09-30T09:43:03;14.20;;;5.18;;
22650;SDS011;11492;42.646;23.400;2023-09-30T09:45:35;27.02;;;5.60;;
22650;SDS011;11492;42.646;23.400;2023-09-30T09:48:07;12.68;;;5.05;;
22650;SDS011;11492;42.646;23.400;2023-09-30T09:50:34;21.15;;;4.95;;
22650;SDS011;11492;42.646;23.400;2023-09-30T09:53:01;18.60;;;4.72;;
22650;SDS011;11492;42.646;23.400;2023-09-30T09:55:29;20.70;;;5.40;;
22650;SDS011;11492;42.646;23.400;2023-09-30T09:57:55;18.08;;;5.13;;
22650;SDS011;11492;42.646;23.400;2023-09-30T10:00:23;12.20;;;5.30;;
22650;SDS011;11492;42.646;23.400;2023-09-30T10:02:51;27.30;;;5.43;;
22650;SDS011;11492;42.646;23.400;2023-09-30T10:05:20;19.55;;;5.43;;
22650;SDS011;11492;42.646;23.400;2023-09-30T10:08:00;18.95;;;5.15;;
22650;SDS011;11492;42.646;23.400;2023-09-30T10:10:35;17.83;;;4.80;;
22650;SDS011;11492;42.646;23.400;2023-09-30T10:13:03;16.50;;;4.78;;
22650;SDS011;11492;42.646;23.400;2023-09-30T10:15:35;15.93;;;4.70;;
22650;SDS011;11492;42.646;23.400;2023-09-30T10:18:09;16.65;;;4.70;;
22650;SDS011;11492;42.646;23.400;2023-09-30T10:20:40;9.68;;;3.95;;
22650;SDS011;11492;42.646;23.400;2023-09-30T10:25:47;12.27;;;4.18;;
22650;SDS011;11492;42.646;23.400;2023-09-30T10:31:17;16.45;;;4.20;;
22650;SDS011;11492;42.646;23.400;2023-09-30T10:36:35;37.40;;;4.53;;
22650;SDS011;11492;42.646;23.400;2023-09-30T10:39:05;18.33;;;4.15;;
22650;SDS011;11492;42.646;23.400;2023-09-30T10:46:55;17.40;;;3.70;;
22650;SDS011;11492;42.646;23.400;2023-09-30T10:51:53;14.75;;;3.50;;
22650;SDS011;11492;42.646;23.400;2023-09-30T10:54:26;10.23;;;3.47;;
22650;SDS011;11492;42.646;23.400;2023-09-30T10:56:56;18.63;;;3.50;;
22650;SDS011;11492;42.646;23.400;2023-09-30T10:59:25;18.20;;;3.28;;
22650;SDS011;11492;42.646;23.400;2023-09-30T11:02:01;16.38;;;3.17;;
22650;SDS011;11492;42.646;23.400;2023-09-30T11:04:46;18.02;;;3.70;;
22650;SDS011;11492;42.646;23.400;2023-09-30T11:07:12;12.55;;;3.03;;
22650;SDS011;11492;42.646;23.400;2023-09-30T11:09:47;12.50;;;3.88;;
22650;SDS011;11492;42.646;23.400;2023-09-30T11:12:13;17.08;;;3.70;;
22650;SDS011;11492;42.646;23.400;2023-09-30T11:14:41;14.77;;;3.08;;
22650;SDS011;11492;42.646;23.400;2023-09-30T11:17:07;13.20;;;3.30;;
22650;SDS011;11492;42.646;23.400;2023-09-30T11:19:35;15.40;;;3.95;;
22650;SDS011;11492;42.646;23.400;2023-09-30T11:22:13;22.40;;;3.80;;
22650;SDS011;11492;42.646;23.400;2023-09-30T11:24:40;9.55;;;3.25;;
22650;SDS011;11492;42.646;23.400;2023-09-30T11:27:07;15.32;;;3.70;;
22650;SDS011;11492;42.646;23.400;2023-09-30T11:29:35;9.57;;;3.70;;
22650;SDS011;11492;42.646;23.400;2023-09-30T11:32:01;15.38;;;4.00;;
22650;SDS011;11492;42.646;23.400;2023-09-30T11:34:34;13.55;;;3.88;;
22650;SDS011;11492;42.646;23.400;2023-09-30T11:37:02;22.90;;;4.38;;
22650;SDS011;11492;42.646;23.400;2023-09-30T11:39:29;12.00;;;4.70;;
22650;SDS011;11492;42.646;23.400;2023-09-30T11:41:55;9.68;;;3.67;;
22650;SDS011;11492;42.646;23.400;2023-09-30T11:44:25;13.02;;;3.85;;
22650;SDS011;11492;42.646;23.400;2023-09-30T11:46:52;17.45;;;4.18;;
22650;SDS011;11492;42.646;23.400;2023-09-30T11:49:36;15.40;;;3.97;;
22650;SDS011;11492;42.646;23.400;2023-09-30T11:52:11;14.18;;;3.67;;
22650;SDS011;11492;42.646;23.400;2023-09-30T11:54:41;17.15;;;3.63;;
22650;SDS011;11492;42.646;23.400;2023-09-30T11:57:16;11.68;;;4.13;;
22650;SDS011;11492;42.646;23.400;2023-09-30T11:59:45;11.93;;;3.70;;
22650;SDS011;11492;42.646;23.400;2023-09-30T12:02:12;15.10;;;3.55;;
22650;SDS011;11492;42.646;23.400;2023-09-30T12:07:12;13.23;;;3.60;;
22650;SDS011;11492;42.646;23.400;2023-09-30T12:09:38;13.93;;;3.92;;
22650;SDS011;11492;42.646;23.400;2023-09-30T12:12:05;18.10;;;4.00;;
22650;SDS011;11492;42.646;23.400;2023-09-30T12:14:35;10.77;;;3.95;;
22650;SDS011;11492;42.646;23.400;2023-09-30T12:17:01;10.73;;;3.92;;
22650;SDS011;11492;42.646;23.400;2023-09-30T12:19:26;15.85;;;3.78;;
22650;SDS011;11492;42.646;23.400;2023-09-30T12:21:52;12.07;;;3.70;;
22650;SDS011;11492;42.646;23.400;2023-09-30T12:24:18;13.10;;;4.53;;
22650;SDS011;11492;42.646;23.400;2023-09-30T12:26:49;18.63;;;4.07;;
22650;SDS011;11492;42.646;23.400;2023-09-30T12:29:18;12.00;;;3.75;;
22650;SDS011;11492;42.646;23.400;2023-09-30T12:31:50;15.70;;;3.92;;
22650;SDS011;11492;42.646;23.400;2023-09-30T12:34:17;11.90;;;3.78;;
22650;SDS011;11492;42.646;23.400;2023-09-30T12:36:43;10.65;;;3.90;;
22650;SDS011;11492;42.646;23.400;2023-09-30T12:39:09;16.83;;;4.40;;
22650;SDS011;11492;42.646;23.400;2023-09-30T12:41:37;14.07;;;3.85;;
22650;SDS011;11492;42.646;23.400;2023-09-30T12:44:07;19.15;;;4.75;;
22650;SDS011;11492;42.646;23.400;2023-09-30T12:46:33;18.63;;;4.88;;
22650;SDS011;11492;42.646;23.400;2023-09-30T12:49:02;15.57;;;4.38;;
22650;SDS011;11492;42.646;23.400;2023-09-30T12:51:28;9.57;;;4.20;;
22650;SDS011;11492;42.646;23.400;2023-09-30T12:53:57;12.65;;;3.97;;
22650;SDS011;11492;42.646;23.400;2023-09-30T12:56:25;16.15;;;3.78;;
22650;SDS011;11492;42.646;23.400;2023-09-30T12:58:51;20.48;;;4.22;;
22650;SDS011;11492;42.646;23.400;2023-09-30T13:01:18;14.23;;;3.90;;
22650;SDS011;11492;42.646;23.400;2023-09-30T13:03:44;24.88;;;4.18;;
22650;SDS011;11492;42.646;23.400;2023-09-30T13:06:12;19.35;;;4.45;;
22650;SDS011;11492;42.646;23.400;2023-09-30T13:08:40;14.40;;;4.20;;
22650;SDS011;11492;42.646;23.400;2023-09-30T13:11:06;10.45;;;3.92;;
22650;SDS011;11492;42.646;23.400;2023-09-30T13:13:33;13.07;;;4.53;;
22650;SDS011;11492;42.646;23.400;2023-09-30T13:16:04;14.60;;;4.22;;
22650;SDS011;11492;42.646;23.400;2023-09-30T13:18:34;16.25;;;4.90;;
22650;SDS011;11492;42.646;23.400;2023-09-30T13:21:02;19.55;;;4.93;;
22650;SDS011;11492;42.646;23.400;2023-09-30T13:23:31;16.92;;;4.07;;
22650;SDS011;11492;42.646;23.400;2023-09-30T13:25:56;12.38;;;4.20;;
22650;SDS011;11492;42.646;23.400;2023-09-30T13:28:22;19.33;;;4.13;;
22650;SDS011;11492;42.646;23.400;2023-09-30T13:30:48;15.40;;;4.28;;
22650;SDS011;11492;42.646;23.400;2023-09-30T13:33:13;16.52;;;4.53;;
22650;SDS011;11492;42.646;23.400;2023-09-30T13:35:39;14.93;;;5.72;;
22650;SDS011;11492;42.646;23.400;2023-09-30T13:38:05;12.63;;;4.70;;
22650;SDS011;11492;42.646;23.400;2023-09-30T13:40:32;17.42;;;5.47;;
22650;SDS011;11492;42.646;23.400;2023-09-30T13:42:58;10.77;;;4.63;;
22650;SDS011;11492;42.646;23.400;2023-09-30T13:45:25;20.38;;;4.50;;
22650;SDS011;11492;42.646;23.400;2023-09-30T13:47:53;11.32;;;4.57;;
22650;SDS011;11492;42.646;23.400;2023-09-30T13:50:21;22.88;;;4.50;;
22650;SDS011;11492;42.646;23.400;2023-09-30T13:52:49;17.60;;;4.30;;
22650;SDS011;11492;42.646;23.400;2023-09-30T13:55:18;14.68;;;4.28;;
22650;SDS011;11492;42.646;23.400;2023-09-30T13:57:45;19.85;;;4.78;;
22650;SDS011;11492;42.646;23.400;2023-09-30T14:00:12;19.05;;;4.72;;
22650;SDS011;11492;42.646;23.400;2023-09-30T14:02:42;14.45;;;4.88;;
22650;SDS011;11492;42.646;23.400;2023-09-30T14:05:10;18.58;;;4.55;;
22650;SDS011;11492;42.646;23.400;2023-09-30T14:07:36;20.33;;;4.43;;
22650;SDS011;11492;42.646;23.400;2023-09-30T14:10:03;14.77;;;3.90;;
22650;SDS011;11492;42.646;23.400;2023-09-30T14:12:30;16.98;;;5.05;;
22650;SDS011;11492;42.646;23.400;2023-09-30T14:14:59;17.42;;;4.72;;
22650;SDS011;11492;42.646;23.400;2023-09-30T14:17:25;22.45;;;5.68;;
22650;SDS011;11492;42.646;23.400;2023-09-30T14:19:52;25.02;;;4.78;;
22650;SDS011;11492;42.646;23.400;2023-09-30T14:22:18;14.65;;;4.35;;
22650;SDS011;11492;42.646;23.400;2023-09-30T14:24:46;14.27;;;4.28;;
22650;SDS011;11492;42.646;23.400;2023-09-30T14:27:17;17.50;;;4.10;;
22650;SDS011;11492;42.646;23.400;2023-09-30T14:29:47;16.55;;;3.72;;
22650;SDS011;11492;42.646;23.400;2023-09-30T14:32:14;13.18;;;4.35;;
22650;SDS011;11492;42.646;23.400;2023-09-30T14:34:43;21.98;;;9.20;;
22650;SDS011;11492;42.646;23.400;2023-09-30T14:37:10;11.40;;;4.60;;
22650;SDS011;11492;42.646;23.400;2023-09-30T14:39:40;19.70;;;4.28;;
22650;SDS011;11492;42.646;23.400;2023-09-30T14:42:06;15.02;;;5.00;;
22650;SDS011;11492;42.646;23.400;2023-09-30T14:44:32;13.00;;;4.25;;
22650;SDS011;11492;42.646;23.400;2023-09-30T14:46:58;15.57;;;4.30;;
22650;SDS011;11492;42.646;23.400;2023-09-30T14:49:26;21.27;;;4.40;;
22650;SDS011;11492;42.646;23.400;2023-09-30T14:51:52;21.83;;;4.28;;